Time;durP1;ratioP1;P1;durP2;ratioP2;P2;SDS_P1;SDS_P2;PMS_P1;PMS_P2;Temp;Humidity;BMP_temperature;BMP_pressure;BME280_temperature;BME280_humidity;BME280_pressure;Samples;Min_cycle;Max_cycle;Signal;HPM_P1;HPM_P2
2023/12/31 00:00:48;;;;;;;2.13;0.70;;;10.80;99.90;;;;;;5093218;28;20016;-71
2023/12/31 00:03:14;;;;;;;3.72;0.45;;;10.80;99.90;;;;;;5092566;28;20126;-71
2023/12/31 00:05:40;;;;;;;0.00;0.00;;;10.70;99.90;;;;;;5093454;28;20099;-71
2023/12/31 00:08:06;;;;;;;4.20;0.98;;;10.70;99.90;;;;;;5092988;28;20032;-70
2023/12/31 00:10:32;;;;;;;0.00;0.00;;;10.70;99.90;;;;;;5093168;28;20028;-70
2023/12/31 00:12:58;;;;;;;2.92;0.63;;;10.80;99.90;;;;;;5092877;28;20028;-69
2023/12/31 00:15:24;;;;;;;1.33;0.55;;;10.80;99.90;;;;;;5093122;28;20028;-71
2023/12/31 00:17:49;;;;;;;5.65;0.75;;;10.70;99.90;;;;;;5092697;28;20118;-70
2023/12/31 00:20:15;;;;;;;0.17;0.17;;;10.70;99.90;;;;;;5093041;28;20350;-71
2023/12/31 00:22:41;;;;;;;2.88;0.57;;;10.70;99.90;;;;;;5092825;28;20024;-70
2023/12/31 00:25:07;;;;;;;0.25;0.25;;;10.70;99.90;;;;;;5093118;28;20469;-70
2023/12/31 00:27:33;;;;;;;0.68;0.47;;;10.70;99.90;;;;;;5091527;28;20039;-69
2023/12/31 00:29:59;;;;;;;0.20;0.20;;;10.70;99.90;;;;;;5091816;28;20024;-70
2023/12/31 00:32:25;;;;;;;5.35;0.70;;;10.60;99.90;;;;;;5091067;28;20373;-70
2023/12/31 00:34:50;;;;;;;1.35;0.28;;;10.60;99.90;;;;;;5092988;28;20020;-69
2023/12/31 00:37:16;;;;;;;2.03;0.43;;;10.60;99.90;;;;;;5092896;28;20476;-71
2023/12/31 00:39:42;;;;;;;0.80;0.75;;;10.70;99.90;;;;;;5092847;28;20016;-69
2023/12/31 00:42:08;;;;;;;0.20;0.20;;;10.70;99.90;;;;;;5092802;28;20024;-70
2023/12/31 00:44:34;;;;;;;4.55;1.00;;;10.70;99.90;;;;;;5092442;28;20047;-71
2023/12/31 00:47:00;;;;;;;0.30;0.30;;;10.60;99.90;;;;;;5092650;28;20525;-70
2023/12/31 00:49:25;;;;;;;1.60;1.50;;;10.60;99.90;;;;;;5092585;28;20458;-70
2023/12/31 00:51:51;;;;;;;0.20;0.20;;;10.60;99.90;;;;;;5095001;28;20028;-70
2023/12/31 00:54:17;;;;;;;4.28;0.55;;;10.60;99.90;;;;;;5096569;28;20396;-70
2023/12/31 00:56:43;;;;;;;2.25;0.28;;;10.60;99.90;;;;;;5095251;28;20036;-69
2023/12/31 00:59:08;;;;;;;0.28;0.28;;;10.60;99.90;;;;;;5095225;28;20499;-70
2023/12/31 01:01:34;;;;;;;0.10;0.10;;;10.50;99.90;;;;;;5094747;28;20089;-69
2023/12/31 01:04:00;;;;;;;0.50;0.50;;;10.50;99.90;;;;;;5096302;28;20024;-69
2023/12/31 01:06:26;;;;;;;0.73;0.45;;;10.50;99.90;;;;;;5096489;28;20064;-71
2023/12/31 01:08:54;;;;;;;1.70;0.73;;;10.50;99.90;;;;;;5096316;28;20024;-70
2023/12/31 01:11:20;;;;;;;0.30;0.30;;;10.40;99.90;;;;;;5095096;28;20038;-70
2023/12/31 01:13:46;;;;;;;3.50;0.65;;;10.40;99.90;;;;;;5094687;28;20040;-71
2023/12/31 01:16:12;;;;;;;0.68;0.43;;;10.50;99.90;;;;;;5092711;28;20030;-70
2023/12/31 01:18:38;;;;;;;0.28;0.20;;;10.40;99.90;;;;;;5096078;28;20024;-70
2023/12/31 01:21:04;;;;;;;1.45;0.38;;;10.30;99.90;;;;;;5096006;28;20074;-71
2023/12/31 01:23:30;;;;;;;0.10;0.10;;;10.30;99.90;;;;;;5095927;28;20047;-70
2023/12/31 01:25:55;;;;;;;0.20;0.20;;;10.40;99.90;;;;;;5096294;28;20032;-70
2023/12/31 01:28:21;;;;;;;0.13;0.13;;;10.40;99.90;;;;;;5096176;28;20050;-69
2023/12/31 01:30:47;;;;;;;0.65;0.30;;;10.40;99.90;;;;;;5095898;28;20477;-70
2023/12/31 01:33:13;;;;;;;0.20;0.20;;;10.40;99.90;;;;;;5095852;28;20066;-71
2023/12/31 01:35:39;;;;;;;7.25;1.13;;;10.40;99.90;;;;;;5081563;28;20093;-70
2023/12/31 01:38:05;;;;;;;0.10;0.10;;;10.40;99.90;;;;;;5095929;28;20040;-69
2023/12/31 01:40:31;;;;;;;0.70;0.30;;;10.30;99.90;;;;;;5094633;28;20451;-70
2023/12/31 01:42:57;;;;;;;1.13;0.73;;;10.30;99.90;;;;;;5074207;28;20358;-70
2023/12/31 01:45:23;;;;;;;0.63;0.63;;;10.30;99.90;;;;;;5087841;28;20032;-70
2023/12/31 01:47:49;;;;;;;0.38;0.30;;;10.30;99.90;;;;;;5094653;28;20415;-71
2023/12/31 01:50:18;;;;;;;1.85;0.40;;;10.20;99.90;;;;;;5095433;28;20036;-70
2023/12/31 01:52:44;;;;;;;0.82;0.43;;;10.30;99.90;;;;;;5094177;28;20468;-70
2023/12/31 01:55:12;;;;;;;0.30;0.30;;;10.30;99.90;;;;;;5094327;28;20423;-69
2023/12/31 01:57:40;;;;;;;0.03;0.03;;;10.30;99.90;;;;;;5094068;28;20028;-71
2023/12/31 02:00:07;;;;;;;0.00;0.00;;;10.30;99.90;;;;;;5085561;28;20021;-70
2023/12/31 02:02:42;;;;;;;0.52;0.38;;;10.30;99.90;;;;;;5090155;28;20036;-70
2023/12/31 02:05:08;;;;;;;0.57;0.10;;;10.20;99.90;;;;;;5094062;28;20113;-70
2023/12/31 02:07:34;;;;;;;0.30;0.22;;;10.20;99.90;;;;;;5095522;28;20086;-70
2023/12/31 02:10:00;;;;;;;0.05;0.05;;;10.20;99.90;;;;;;5095177;28;20069;-70
2023/12/31 02:12:25;;;;;;;0.00;0.00;;;10.30;99.90;;;;;;5095050;28;20477;-70
2023/12/31 02:14:52;;;;;;;0.17;0.17;;;10.30;99.90;;;;;;5093526;28;20451;-70
2023/12/31 02:17:18;;;;;;;0.30;0.30;;;10.20;99.90;;;;;;5093929;28;20166;-70
2023/12/31 02:19:44;;;;;;;0.40;0.20;;;10.20;99.90;;;;;;5093653;28;20020;-71
2023/12/31 02:22:10;;;;;;;0.20;0.20;;;10.30;99.90;;;;;;5095309;28;20036;-70
2023/12/31 02:25:03;;;;;;;0.00;0.00;;;10.20;99.90;;;;;;5093490;28;20073;-69
2023/12/31 02:27:29;;;;;;;0.47;0.47;;;10.30;99.90;;;;;;5094728;28;20103;-70
2023/12/31 02:30:02;;;;;;;6.38;0.82;;;10.30;99.90;;;;;;5093916;28;20135;-71
2023/12/31 02:32:28;;;;;;;0.38;0.38;;;10.30;99.90;;;;;;5082521;28;20016;-70
2023/12/31 02:34:53;;;;;;;0.25;0.20;;;10.30;99.90;;;;;;5093310;28;20038;-70
2023/12/31 02:37:19;;;;;;;5.45;0.88;;;10.30;99.90;;;;;;5093393;28;20039;-69
2023/12/31 02:39:45;;;;;;;0.63;0.10;;;10.40;99.90;;;;;;5094787;28;20032;-70
2023/12/31 02:42:11;;;;;;;0.30;0.30;;;10.40;99.90;;;;;;5094340;28;20020;-71
2023/12/31 02:44:37;;;;;;;0.38;0.32;;;10.40;99.90;;;;;;5094445;28;20036;-69
2023/12/31 02:47:03;;;;;;;0.00;0.00;;;10.40;99.90;;;;;;5080169;28;20036;-70
2023/12/31 02:49:28;;;;;;;1.10;0.95;;;10.40;99.90;;;;;;5093531;28;20103;-70
2023/12/31 02:51:54;;;;;;;0.28;0.28;;;10.40;99.90;;;;;;5093170;28;20418;-70
2023/12/31 02:54:20;;;;;;;0.65;0.63;;;10.40;99.90;;;;;;5101342;22;20044;-70
2023/12/31 02:56:46;;;;;;;0.03;0.03;;;10.40;99.90;;;;;;5092596;28;20036;-71
2023/12/31 02:59:12;;;;;;;0.08;0.08;;;10.50;99.90;;;;;;5093976;28;20020;-69
2023/12/31 03:01:38;;;;;;;0.28;0.20;;;10.50;99.90;;;;;;5093002;28;20431;-70
2023/12/31 03:04:04;;;;;;;0.40;0.40;;;10.50;99.90;;;;;;5092867;28;20031;-71
2023/12/31 03:06:30;;;;;;;1.45;0.63;;;10.60;99.90;;;;;;5092926;28;20034;-70
2023/12/31 03:08:58;;;;;;;0.70;0.57;;;10.60;99.90;;;;;;5094291;28;20077;-70
2023/12/31 03:11:25;;;;;;;1.75;0.80;;;10.60;99.90;;;;;;5092529;28;20028;-70
2023/12/31 03:13:52;;;;;;;0.90;0.63;;;10.70;99.90;;;;;;5093376;28;20039;-70
2023/12/31 03:16:19;;;;;;;0.13;0.13;;;10.60;99.90;;;;;;5092524;28;20108;-69
2023/12/31 03:18:44;;;;;;;6.03;0.90;;;10.60;99.90;;;;;;5092944;28;20024;-69
2023/12/31 03:21:16;;;;;;;0.20;0.20;;;10.60;99.90;;;;;;5092532;28;20055;-69
2023/12/31 03:23:42;;;;;;;0.40;0.40;;;10.70;99.90;;;;;;5092150;28;20036;-70
2023/12/31 03:26:08;;;;;;;0.43;0.43;;;10.70;99.90;;;;;;5093542;28;20423;-70
2023/12/31 03:28:35;;;;;;;0.80;0.63;;;10.80;99.90;;;;;;5093733;28;20055;-70
2023/12/31 03:31:03;;;;;;;0.50;0.50;;;10.80;99.90;;;;;;5092579;28;20028;-70
2023/12/31 03:33:29;;;;;;;0.28;0.13;;;10.80;99.90;;;;;;5093627;28;20017;-70
2023/12/31 03:35:56;;;;;;;0.28;0.28;;;10.80;99.90;;;;;;5093527;28;20051;-71
2023/12/31 03:38:22;;;;;;;0.60;0.40;;;10.70;99.90;;;;;;5092177;28;20071;-69
2023/12/31 03:40:48;;;;;;;0.52;0.38;;;10.80;99.90;;;;;;5092090;28;20035;-70
2023/12/31 03:43:15;;;;;;;0.45;0.45;;;10.80;99.90;;;;;;5093419;28;20056;-70
2023/12/31 03:45:41;;;;;;;0.50;0.50;;;10.70;99.90;;;;;;5093425;28;20023;-71
2023/12/31 03:48:07;;;;;;;1.55;1.02;;;10.80;99.90;;;;;;5093480;28;20104;-69
2023/12/31 03:50:33;;;;;;;0.63;0.43;;;10.80;99.90;;;;;;5093378;28;20031;-69
2023/12/31 03:52:59;;;;;;;2.70;0.40;;;10.70;99.90;;;;;;5093441;28;20105;-69
2023/12/31 03:55:24;;;;;;;0.30;0.30;;;10.70;99.90;;;;;;5093046;28;20058;-71
2023/12/31 03:57:50;;;;;;;1.95;0.85;;;10.80;99.90;;;;;;5091919;28;20362;-71
2023/12/31 04:00:17;;;;;;;5.18;0.68;;;10.80;99.90;;;;;;5093314;28;20016;-71
2023/12/31 04:02:43;;;;;;;0.50;0.45;;;10.80;99.90;;;;;;5093055;28;20388;-71
2023/12/31 04:05:09;;;;;;;0.50;0.50;;;10.80;99.90;;;;;;5093496;28;20024;-70
2023/12/31 04:07:35;;;;;;;6.57;1.35;;;10.80;99.90;;;;;;5093032;28;20032;-70
2023/12/31 04:10:01;;;;;;;0.57;0.50;;;10.80;99.90;;;;;;5092976;28;20021;-69
2023/12/31 04:12:27;;;;;;;0.57;0.57;;;10.80;99.90;;;;;;5091664;28;20074;-70
2023/12/31 04:14:53;;;;;;;1.63;0.80;;;10.80;99.90;;;;;;5093255;28;20445;-69
2023/12/31 04:17:18;;;;;;;0.98;0.60;;;10.90;99.90;;;;;;5092250;28;20044;-70
2023/12/31 04:19:45;;;;;;;1.13;0.80;;;10.90;99.90;;;;;;5091582;28;20024;-70
2023/12/31 04:22:11;;;;;;;0.28;0.28;;;10.90;99.90;;;;;;5092435;28;20028;-70
2023/12/31 04:24:39;;;;;;;0.65;0.47;;;10.90;99.90;;;;;;5087422;28;20032;-70
2023/12/31 04:27:05;;;;;;;0.20;0.20;;;10.80;99.90;;;;;;5095937;28;20028;-70
2023/12/31 04:29:31;;;;;;;0.93;0.90;;;10.80;99.90;;;;;;5097272;28;20035;-70
2023/12/31 04:31:58;;;;;;;1.38;0.73;;;10.90;99.90;;;;;;5095864;28;20024;-70
2023/12/31 04:34:24;;;;;;;0.75;0.60;;;10.90;99.90;;;;;;5096926;28;20027;-69
2023/12/31 04:36:50;;;;;;;0.13;0.13;;;10.90;99.90;;;;;;5095398;28;20044;-70
2023/12/31 04:39:16;;;;;;;0.00;0.00;;;10.90;99.90;;;;;;5096819;28;20353;-69
2023/12/31 04:41:42;;;;;;;0.75;0.43;;;10.90;99.90;;;;;;5097000;28;20028;-70
2023/12/31 04:44:08;;;;;;;0.28;0.28;;;10.90;99.90;;;;;;5096694;28;20048;-70
2023/12/31 04:46:34;;;;;;;0.20;0.15;;;10.90;99.90;;;;;;5078565;28;20028;-70
2023/12/31 04:49:00;;;;;;;1.30;0.40;;;10.90;99.90;;;;;;5091452;28;20016;-70
2023/12/31 04:51:27;;;;;;;0.73;0.68;;;10.80;99.90;;;;;;5085338;28;20032;-69
2023/12/31 04:53:54;;;;;;;0.95;0.57;;;10.90;99.90;;;;;;5094787;28;20385;-69
2023/12/31 04:56:21;;;;;;;1.55;0.50;;;10.80;99.90;;;;;;5095352;28;20028;-68
2023/12/31 04:58:51;;;;;;;7.72;0.88;;;10.80;99.90;;;;;;5094919;28;20063;-68
2023/12/31 05:01:18;;;;;;;0.60;0.60;;;10.80;99.90;;;;;;5096423;28;20016;-69
2023/12/31 05:03:45;;;;;;;1.65;0.55;;;10.80;99.90;;;;;;5095989;28;20020;-71
2023/12/31 05:06:12;;;;;;;1.95;0.90;;;10.70;99.90;;;;;;5096289;28;20042;-68
2023/12/31 05:08:44;;;;;;;2.60;0.80;;;10.70;99.90;;;;;;5095891;28;20012;-68
2023/12/31 05:11:11;;;;;;;0.57;0.52;;;10.80;99.90;;;;;;5095980;28;20375;-68
2023/12/31 05:13:41;;;;;;;0.40;0.40;;;10.70;99.90;;;;;;5095970;28;20056;-68
2023/12/31 05:16:08;;;;;;;0.25;0.25;;;10.70;99.90;;;;;;5095953;28;20468;-68
2023/12/31 05:18:34;;;;;;;2.63;1.75;;;10.70;99.90;;;;;;5095647;28;20078;-68
2023/12/31 05:21:01;;;;;;;0.82;0.82;;;10.80;99.90;;;;;;5094577;28;20028;-68
2023/12/31 05:23:27;;;;;;;0.45;0.43;;;10.80;99.90;;;;;;5095794;28;20377;-68
2023/12/31 05:25:53;;;;;;;0.68;0.60;;;10.80;99.90;;;;;;5096002;28;20020;-68
2023/12/31 05:28:19;;;;;;;0.82;0.52;;;10.90;99.90;;;;;;5095925;28;20579;-71
2023/12/31 05:30:45;;;;;;;0.20;0.20;;;10.80;99.90;;;;;;5095849;28;20016;-68
2023/12/31 05:33:11;;;;;;;1.00;0.85;;;10.90;99.90;;;;;;5095853;28;20039;-68
2023/12/31 05:35:37;;;;;;;0.13;0.13;;;10.80;99.90;;;;;;5095203;28;20069;-68
2023/12/31 05:38:03;;;;;;;1.13;0.47;;;10.80;99.90;;;;;;5095041;28;20036;-68
2023/12/31 05:40:29;;;;;;;1.25;1.02;;;11.00;99.90;;;;;;5095330;28;20028;-69
2023/12/31 05:42:54;;;;;;;0.77;0.50;;;11.00;99.90;;;;;;5095592;28;20047;-70
2023/12/31 05:45:20;;;;;;;0.20;0.20;;;11.10;99.90;;;;;;5095317;28;20031;-70
2023/12/31 05:47:46;;;;;;;0.60;0.57;;;11.10;99.90;;;;;;5095487;28;20052;-68
2023/12/31 05:50:15;;;;;;;0.82;0.75;;;11.10;99.90;;;;;;5095494;28;20392;-69
2023/12/31 05:52:42;;;;;;;0.85;0.60;;;11.10;99.90;;;;;;5080430;28;20108;-68
2023/12/31 05:55:09;;;;;;;0.70;0.55;;;11.10;99.90;;;;;;5095700;28;20123;-71
2023/12/31 05:57:35;;;;;;;1.75;0.80;;;11.10;99.90;;;;;;5095267;28;20107;-70
2023/12/31 06:00:01;;;;;;;0.80;0.80;;;11.10;99.90;;;;;;5095055;28;20422;-69
2023/12/31 06:02:27;;;;;;;2.15;0.50;;;11.20;99.90;;;;;;5087863;28;20028;-69
2023/12/31 06:04:52;;;;;;;0.13;0.13;;;11.20;99.90;;;;;;5093497;28;20008;-69
2023/12/31 06:07:18;;;;;;;0.40;0.35;;;11.20;99.90;;;;;;5095148;28;20062;-70
2023/12/31 06:09:45;;;;;;;1.88;0.60;;;11.30;99.90;;;;;;5076972;28;20384;-69
2023/12/31 06:12:11;;;;;;;0.65;0.40;;;11.30;99.90;;;;;;5095162;28;20031;-69
2023/12/31 06:14:37;;;;;;;0.77;0.60;;;11.40;99.90;;;;;;5107516;22;20495;-69
2023/12/31 06:17:03;;;;;;;1.90;0.95;;;11.40;99.90;;;;;;5113554;28;20048;-70
2023/12/31 06:19:29;;;;;;;0.40;0.40;;;11.40;99.90;;;;;;5112945;28;20024;-70
2023/12/31 06:21:55;;;;;;;1.60;1.27;;;11.40;99.90;;;;;;5115486;28;20035;-69
2023/12/31 06:24:20;;;;;;;0.88;0.60;;;11.40;99.90;;;;;;5115191;28;20490;-70
2023/12/31 06:26:47;;;;;;;1.80;0.70;;;11.60;99.90;;;;;;5096309;28;20119;-69
2023/12/31 06:29:13;;;;;;;0.43;0.38;;;11.50;99.90;;;;;;5094897;28;20048;-69
2023/12/31 06:31:39;;;;;;;0.82;0.63;;;11.50;99.90;;;;;;5093325;28;20036;-70
2023/12/31 06:34:05;;;;;;;2.72;1.10;;;11.60;99.90;;;;;;5091038;22;20048;-70
2023/12/31 06:36:31;;;;;;;0.50;0.50;;;11.60;99.90;;;;;;5074172;28;20504;-70
2023/12/31 06:38:56;;;;;;;1.02;0.63;;;11.60;99.90;;;;;;5074373;28;20028;-69
2023/12/31 06:41:22;;;;;;;0.65;0.30;;;11.60;99.90;;;;;;5056419;28;20035;-70
2023/12/31 06:43:48;;;;;;;1.40;0.68;;;11.50;99.90;;;;;;5074170;28;20024;-70
2023/12/31 06:46:14;;;;;;;0.45;0.30;;;11.50;99.90;;;;;;5074147;28;20024;-69
2023/12/31 06:48:40;;;;;;;0.45;0.38;;;11.50;99.90;;;;;;5072776;28;20028;-70
2023/12/31 06:51:06;;;;;;;0.80;0.32;;;11.50;99.90;;;;;;5074129;28;20028;-68
2023/12/31 06:53:35;;;;;;;3.30;0.73;;;11.50;99.90;;;;;;5073984;28;20036;-70
2023/12/31 06:56:08;;;;;;;0.93;0.73;;;11.50;99.90;;;;;;5055774;28;20027;-69
2023/12/31 06:58:37;;;;;;;0.40;0.30;;;11.50;99.90;;;;;;5073965;28;20028;-69
2023/12/31 07:01:04;;;;;;;0.93;0.65;;;11.50;99.90;;;;;;5073919;28;20371;-69
2023/12/31 07:03:30;;;;;;;0.10;0.10;;;11.50;99.90;;;;;;5073841;28;20385;-69
2023/12/31 07:05:57;;;;;;;0.55;0.55;;;11.50;99.90;;;;;;5073541;28;20024;-70
2023/12/31 07:08:24;;;;;;;0.20;0.20;;;11.60;99.90;;;;;;5073849;28;20101;-70
2023/12/31 07:10:53;;;;;;;1.00;0.90;;;11.60;99.90;;;;;;5038902;28;20032;-69
2023/12/31 07:13:19;;;;;;;0.80;0.80;;;11.60;99.90;;;;;;5073698;28;20029;-69
2023/12/31 07:15:45;;;;;;;3.03;0.70;;;11.50;99.90;;;;;;5073439;28;20021;-71
2023/12/31 07:18:11;;;;;;;0.50;0.45;;;11.50;99.90;;;;;;5073387;28;20098;-70
2023/12/31 07:20:37;;;;;;;1.42;0.68;;;11.50;99.90;;;;;;5073603;28;20017;-69
2023/12/31 07:23:03;;;;;;;1.13;0.52;;;11.40;99.90;;;;;;5073155;28;20029;-70
2023/12/31 07:25:32;;;;;;;1.55;0.73;;;11.50;99.90;;;;;;5073707;28;20021;-70
2023/12/31 07:27:58;;;;;;;1.45;0.68;;;11.50;99.90;;;;;;5055984;28;20116;-70
2023/12/31 07:30:25;;;;;;;1.52;0.82;;;11.50;99.90;;;;;;5073266;28;20028;-70
2023/12/31 07:32:52;;;;;;;1.15;0.57;;;11.50;99.90;;;;;;5072851;28;20028;-68
2023/12/31 07:35:18;;;;;;;1.60;0.60;;;11.40;99.90;;;;;;5055333;28;20043;-69
2023/12/31 07:37:44;;;;;;;0.50;0.50;;;11.40;99.90;;;;;;5073112;28;20033;-69
2023/12/31 07:40:10;;;;;;;0.98;0.85;;;11.40;99.90;;;;;;5055387;28;20036;-69
2023/12/31 07:42:39;;;;;;;0.80;0.75;;;11.40;99.90;;;;;;5055157;28;20033;-70
2023/12/31 07:45:08;;;;;;;0.20;0.20;;;11.40;99.90;;;;;;5073244;28;20162;-70
2023/12/31 07:47:39;;;;;;;0.85;0.63;;;11.30;99.90;;;;;;5073102;28;20044;-69
2023/12/31 07:50:08;;;;;;;1.73;1.15;;;11.20;99.90;;;;;;5073203;28;20029;-69
2023/12/31 07:52:34;;;;;;;0.70;0.60;;;11.00;99.90;;;;;;5055179;28;20039;-68
2023/12/31 07:55:02;;;;;;;0.35;0.20;;;10.60;99.90;;;;;;5073045;28;20012;-70
2023/12/31 07:57:28;;;;;;;0.38;0.38;;;10.00;99.90;;;;;;5072803;28;20047;-68
2023/12/31 07:59:54;;;;;;;4.05;0.50;;;9.80;99.90;;;;;;5072635;28;20028;-70
2023/12/31 08:02:20;;;;;;;1.10;0.52;;;9.80;99.90;;;;;;5072603;28;20074;-68
2023/12/31 08:04:46;;;;;;;0.65;0.20;;;9.80;99.90;;;;;;5072807;28;20025;-68
2023/12/31 08:07:12;;;;;;;0.32;0.28;;;9.90;99.90;;;;;;5073037;28;20350;-68
2023/12/31 08:09:38;;;;;;;0.40;0.40;;;9.90;99.90;;;;;;5072850;28;20041;-69
2023/12/31 08:12:04;;;;;;;1.10;0.57;;;9.90;99.90;;;;;;5072638;28;20431;-68
2023/12/31 08:14:30;;;;;;;0.10;0.10;;;10.00;99.90;;;;;;5072259;28;20055;-67
2023/12/31 08:16:56;;;;;;;0.20;0.20;;;10.10;99.90;;;;;;5071978;28;20033;-69
2023/12/31 08:19:21;;;;;;;0.50;0.50;;;10.10;99.90;;;;;;5072246;28;20263;-70
2023/12/31 08:21:47;;;;;;;0.10;0.10;;;10.20;99.90;;;;;;5072700;28;20017;-69
2023/12/31 08:24:20;;;;;;;0.20;0.20;;;10.30;99.90;;;;;;5072387;28;20068;-70
2023/12/31 08:26:46;;;;;;;0.30;0.30;;;10.20;99.90;;;;;;5072646;28;20036;-70
2023/12/31 08:29:14;;;;;;;0.32;0.25;;;10.30;99.90;;;;;;5072619;28;20355;-69
2023/12/31 08:31:40;;;;;;;0.80;0.20;;;10.20;99.90;;;;;;5072016;28;20078;-68
2023/12/31 08:34:06;;;;;;;2.25;0.88;;;10.20;99.90;;;;;;5072314;28;20029;-69
2023/12/31 08:36:32;;;;;;;0.13;0.13;;;10.20;99.90;;;;;;5072367;28;20044;-69
2023/12/31 08:38:58;;;;;;;0.10;0.10;;;10.10;99.90;;;;;;5072339;28;20033;-70
2023/12/31 08:41:24;;;;;;;0.10;0.10;;;10.10;99.90;;;;;;5072378;28;20047;-69
2023/12/31 08:43:50;;;;;;;1.23;0.28;;;10.10;99.90;;;;;;5071953;28;20025;-68
2023/12/31 08:46:15;;;;;;;0.73;0.52;;;10.20;99.90;;;;;;5072489;28;20016;-68
2023/12/31 08:48:41;;;;;;;0.10;0.10;;;10.10;99.90;;;;;;5072144;28;20389;-67
2023/12/31 08:51:07;;;;;;;5.00;0.90;;;10.10;99.90;;;;;;5072122;28;20024;-68
2023/12/31 08:53:33;;;;;;;0.45;0.15;;;10.10;99.90;;;;;;5071902;28;20036;-68
2023/12/31 08:55:59;;;;;;;0.82;0.45;;;10.10;99.90;;;;;;5053943;28;20063;-68
2023/12/31 08:58:25;;;;;;;0.20;0.20;;;10.10;99.90;;;;;;5071961;28;20060;-69
2023/12/31 09:00:52;;;;;;;0.20;0.20;;;10.10;99.90;;;;;;5072051;28;20086;-68
2023/12/31 09:03:18;;;;;;;0.40;0.40;;;10.20;99.90;;;;;;5054033;28;20048;-69
2023/12/31 09:05:44;;;;;;;2.65;0.52;;;10.20;99.90;;;;;;5072063;28;20029;-69
2023/12/31 09:08:10;;;;;;;0.30;0.30;;;10.20;99.90;;;;;;5054070;28;20024;-68
2023/12/31 09:10:36;;;;;;;0.20;0.20;;;10.30;99.90;;;;;;5053923;28;20036;-68
2023/12/31 09:13:03;;;;;;;0.75;0.40;;;10.30;99.90;;;;;;5074044;28;20111;-69
2023/12/31 09:15:29;;;;;;;0.35;0.25;;;10.30;99.90;;;;;;5058075;28;20448;-68
2023/12/31 09:17:57;;;;;;;0.10;0.10;;;10.30;99.90;;;;;;5075514;28;20081;-69
2023/12/31 09:20:23;;;;;;;0.20;0.20;;;10.30;99.90;;;;;;5057799;28;20029;-68
2023/12/31 09:22:52;;;;;;;0.60;0.60;;;10.30;99.90;;;;;;5075710;28;20373;-68
2023/12/31 09:25:22;;;;;;;0.20;0.20;;;10.30;99.90;;;;;;5057704;28;20040;-69
2023/12/31 09:27:48;;;;;;;0.00;0.00;;;10.40;99.90;;;;;;5075425;28;20142;-68
2023/12/31 09:30:14;;;;;;;0.80;0.55;;;10.40;99.90;;;;;;5075239;28;20021;-69
2023/12/31 09:32:41;;;;;;;4.10;0.52;;;10.40;99.90;;;;;;5075456;28;20146;-69
2023/12/31 09:35:08;;;;;;;0.52;0.40;;;10.40;99.90;;;;;;5075147;28;20476;-68
2023/12/31 09:37:34;;;;;;;0.20;0.20;;;10.50;99.90;;;;;;5075452;28;20036;-69
2023/12/31 09:40:00;;;;;;;0.57;0.10;;;10.40;99.90;;;;;;5075387;28;20031;-69
2023/12/31 09:42:40;;;;;;;1.95;0.32;;;10.40;99.90;;;;;;5075049;28;20040;-69
2023/12/31 09:45:08;;;;;;;0.82;0.43;;;10.40;99.90;;;;;;5057175;28;20381;-68
2023/12/31 09:47:34;;;;;;;1.17;0.25;;;10.50;99.90;;;;;;5075410;28;20185;-69
2023/12/31 09:50:01;;;;;;;0.05;0.05;;;10.40;99.90;;;;;;5075182;28;20463;-69
2023/12/31 09:52:31;;;;;;;2.17;0.60;;;10.50;99.90;;;;;;5057197;28;20107;-69
2023/12/31 09:54:59;;;;;;;2.40;0.45;;;10.50;99.90;;;;;;5075071;28;20026;-69
2023/12/31 09:57:26;;;;;;;1.73;0.50;;;10.50;99.90;;;;;;5074765;28;20040;-70
2023/12/31 10:00:12;;;;;;;4.78;0.20;;;10.50;99.90;;;;;;5074903;28;20020;-69
2023/12/31 10:02:39;;;;;;;1.10;0.38;;;10.50;99.90;;;;;;5074713;28;20025;-69
2023/12/31 10:05:06;;;;;;;0.77;0.45;;;10.30;99.90;;;;;;5074836;28;20118;-69
2023/12/31 10:07:32;;;;;;;0.15;0.15;;;10.30;99.90;;;;;;5074933;28;20103;-68
2023/12/31 10:10:00;;;;;;;0.20;0.10;;;10.10;99.90;;;;;;5074915;28;20043;-68
2023/12/31 10:12:27;;;;;;;0.70;0.40;;;9.90;99.90;;;;;;5074502;28;20029;-68
2023/12/31 10:14:54;;;;;;;0.85;0.32;;;9.80;99.90;;;;;;5074319;28;20020;-69
2023/12/31 10:17:20;;;;;;;1.65;0.25;;;9.90;99.90;;;;;;5074774;28;20511;-70
2023/12/31 10:19:46;;;;;;;0.25;0.25;;;9.90;99.90;;;;;;5074457;28;20020;-70
2023/12/31 10:22:15;;;;;;;0.20;0.20;;;9.90;99.90;;;;;;5074739;28;20036;-69
2023/12/31 10:24:41;;;;;;;0.30;0.22;;;10.10;99.90;;;;;;5073938;28;20031;-69
2023/12/31 10:27:09;;;;;;;0.65;0.40;;;10.00;99.90;;;;;;5074088;28;20384;-70
2023/12/31 10:29:35;;;;;;;0.22;0.22;;;10.00;99.90;;;;;;5074361;28;20025;-68
2023/12/31 10:32:03;;;;;;;0.10;0.10;;;10.00;99.90;;;;;;5056502;28;20153;-69
2023/12/31 10:34:29;;;;;;;0.38;0.30;;;10.00;99.90;;;;;;5074279;28;20044;-70
2023/12/31 10:37:06;;;;;;;0.50;0.43;;;10.00;99.90;;;;;;5073926;28;20079;-70
2023/12/31 10:39:38;;;;;;;0.73;0.45;;;10.00;99.90;;;;;;5074140;28;20052;-69
2023/12/31 10:42:06;;;;;;;0.00;0.00;;;9.90;99.90;;;;;;5073969;28;20499;-68
2023/12/31 10:44:36;;;;;;;0.13;0.13;;;9.90;99.90;;;;;;5073989;28;20039;-69
2023/12/31 10:47:06;;;;;;;1.35;0.20;;;9.90;99.90;;;;;;5073735;28;20074;-69
2023/12/31 10:49:34;;;;;;;6.30;2.00;;;9.80;99.90;;;;;;5074041;28;20036;-70
2023/12/31 10:52:02;;;;;;;0.00;0.00;;;9.80;99.90;;;;;;5073961;28;20070;-69
2023/12/31 10:54:33;;;;;;;0.10;0.10;;;9.80;99.90;;;;;;5073646;28;20463;-69
2023/12/31 10:57:00;;;;;;;0.10;0.03;;;9.80;99.90;;;;;;5073842;28;20037;-69
2023/12/31 10:59:26;;;;;;;1.85;0.20;;;9.80;99.90;;;;;;5073687;28;20580;-70
2023/12/31 11:01:54;;;;;;;1.55;0.57;;;9.70;99.90;;;;;;5073644;28;20115;-69
2023/12/31 11:04:24;;;;;;;0.22;0.22;;;9.60;99.90;;;;;;5072913;22;20040;-69
2023/12/31 11:06:49;;;;;;;0.28;0.15;;;9.60;99.90;;;;;;5063078;28;20029;-70
2023/12/31 11:09:17;;;;;;;13.45;0.77;;;9.70;99.90;;;;;;5053349;28;20055;-69
2023/12/31 11:11:43;;;;;;;2.63;0.50;;;9.70;99.90;;;;;;5053380;28;20071;-69
2023/12/31 11:14:12;;;;;;;2.78;0.50;;;9.70;99.90;;;;;;5053222;28;20059;-69
2023/12/31 11:16:55;;;;;;;6.05;1.08;;;9.70;99.90;;;;;;5035796;28;20037;-69
2023/12/31 11:19:49;;;;;;;1.95;0.50;;;9.80;99.90;;;;;;5053359;28;20036;-70
2023/12/31 11:22:15;;;;;;;6.93;1.17;;;9.80;99.90;;;;;;5053394;28;20222;-69
2023/12/31 11:24:42;;;;;;;5.47;0.85;;;9.60;99.90;;;;;;5053071;28;20114;-71
2023/12/31 11:27:16;;;;;;;0.85;0.45;;;9.60;99.90;;;;;;5053149;28;20036;-68
2023/12/31 11:29:49;;;;;;;4.45;0.80;;;9.60;99.90;;;;;;5053336;28;20037;-70
2023/12/31 11:32:18;;;;;;;2.42;0.52;;;9.50;99.90;;;;;;5053053;28;20040;-69
2023/12/31 11:34:44;;;;;;;1.75;0.40;;;9.70;99.90;;;;;;5052714;28;20029;-69
2023/12/31 11:37:10;;;;;;;6.32;0.98;;;10.10;99.90;;;;;;5052976;28;20385;-69
2023/12/31 11:39:36;;;;;;;0.77;0.60;;;10.30;99.90;;;;;;5035080;28;20044;-70
2023/12/31 11:42:11;;;;;;;0.93;0.50;;;10.10;99.90;;;;;;5052887;28;20090;-69
2023/12/31 11:44:43;;;;;;;0.52;0.10;;;10.30;99.90;;;;;;5045551;28;20051;-70
2023/12/31 11:47:22;;;;;;;0.43;0.43;;;10.20;99.90;;;;;;5056288;28;20071;-70
2023/12/31 11:49:52;;;;;;;0.08;0.08;;;10.10;99.90;;;;;;5053032;28;20430;-69
2023/12/31 11:52:20;;;;;;;2.40;0.63;;;10.00;99.90;;;;;;5052785;28;20064;-69
2023/12/31 11:54:46;;;;;;;0.10;0.10;;;10.00;99.90;;;;;;5052929;28;20029;-70
2023/12/31 11:57:16;;;;;;;0.63;0.50;;;9.90;99.90;;;;;;5052757;28;20037;-70
2023/12/31 11:59:44;;;;;;;8.52;1.38;;;10.00;99.90;;;;;;5053008;28;20036;-70
2023/12/31 12:02:10;;;;;;;0.10;0.10;;;9.90;99.90;;;;;;5052770;28;20418;-70
2023/12/31 12:04:36;;;;;;;4.65;0.52;;;9.90;99.90;;;;;;5065969;28;20563;-69
2023/12/31 12:07:05;;;;;;;0.57;0.43;;;10.00;99.90;;;;;;5052308;28;20051;-69
2023/12/31 12:09:33;;;;;;;0.77;0.10;;;9.90;99.90;;;;;;5052778;28;20020;-72
2023/12/31 12:12:01;;;;;;;5.65;0.82;;;10.10;99.90;;;;;;5052522;28;20032;-68
2023/12/31 12:14:28;;;;;;;3.13;0.30;;;10.10;99.90;;;;;;5052728;28;20363;-70
2023/12/31 12:16:54;;;;;;;1.35;0.60;;;10.10;99.90;;;;;;5034763;28;20033;-71
2023/12/31 12:19:21;;;;;;;0.25;0.20;;;10.20;99.90;;;;;;5052434;28;20025;-71
2023/12/31 12:21:48;;;;;;;12.27;1.30;;;10.20;99.90;;;;;;5052373;28;20029;-70
2023/12/31 12:24:15;;;;;;;6.60;2.08;;;10.10;99.90;;;;;;5052996;28;20470;-72
2023/12/31 12:26:42;;;;;;;10.52;0.70;;;10.10;99.90;;;;;;5052322;28;20032;-71
2023/12/31 12:29:10;;;;;;;2.13;0.25;;;10.10;99.90;;;;;;5052528;28;20438;-70
2023/12/31 12:31:37;;;;;;;0.43;0.20;;;10.10;99.90;;;;;;5034783;28;20386;-70
2023/12/31 12:34:04;;;;;;;3.30;1.33;;;10.20;99.90;;;;;;5052010;28;20048;-70
2023/12/31 12:36:31;;;;;;;5.18;1.25;;;10.30;99.90;;;;;;5052094;28;20025;-70
2023/12/31 12:39:02;;;;;;;6.97;0.98;;;10.20;99.90;;;;;;5052297;28;20029;-69
2023/12/31 12:41:32;;;;;;;1.27;0.25;;;10.20;99.90;;;;;;5052646;28;20028;-70
2023/12/31 12:44:06;;;;;;;2.53;0.80;;;10.30;99.90;;;;;;5052047;28;20033;-71
2023/12/31 12:46:33;;;;;;;5.70;0.77;;;10.30;99.90;;;;;;5054223;28;20040;-70